createdAt,value
2022-11-04T00:00:35.344Z,45.10
2022-11-04T00:03:22.176Z,41.53
2022-11-04T00:05:55.277Z,39.92
2022-11-04T00:08:42.199Z,36.33
2022-11-04T00:12:01.210Z,42.70
2022-11-04T00:14:55.206Z,36.15
2022-11-04T00:17:49.207Z,34.78
2022-11-04T00:21:01.205Z,37.40
2022-11-04T00:24:06.221Z,35.78
2022-11-04T00:26:57.789Z,35.00
2022-11-04T00:29:44.186Z,43.05
2022-11-04T00:32:36.044Z,35.47
2022-11-04T00:35:24.191Z,37.00
2022-11-04T00:38:04.201Z,36.20
2022-11-04T00:40:58.270Z,35.05
2022-11-04T00:43:45.219Z,38.45
2022-11-04T00:46:18.284Z,34.17
2022-11-04T00:49:05.210Z,35.25
2022-11-04T00:51:38.290Z,34.75
2022-11-04T00:54:25.209Z,38.20
2022-11-04T00:56:58.294Z,32.70
2022-11-04T00:59:46.202Z,37.53
2022-11-04T01:02:19.429Z,38.15
2022-11-04T01:05:06.227Z,36.05
2022-11-04T01:07:43.533Z,35.40
2022-11-04T01:10:30.228Z,33.67
2022-11-04T01:13:03.305Z,38.47
2022-11-04T01:15:50.213Z,35.85
2022-11-04T01:18:23.296Z,42.83
2022-11-04T01:21:12.204Z,37.40
2022-11-04T01:23:53.262Z,38.75
2022-11-04T01:26:47.209Z,41.28
2022-11-04T01:29:34.251Z,35.25
2022-11-04T01:32:07.262Z,34.22
2022-11-04T01:34:54.220Z,34.80
2022-11-04T01:37:34.233Z,34.53
2022-11-04T01:40:21.226Z,34.20
2022-11-04T01:42:54.396Z,34.63
2022-11-04T01:45:41.251Z,36.65
2022-11-04T01:48:35.238Z,33.20
2022-11-04T01:51:32.236Z,32.60
2022-11-04T01:54:20.227Z,33.42
2022-11-04T01:56:55.315Z,35.85
2022-11-04T01:59:45.228Z,31.30
2022-11-04T02:02:18.397Z,32.65
2022-11-04T02:05:05.240Z,32.65
2022-11-04T02:07:39.316Z,40.78
2022-11-04T02:10:29.242Z,43.83
2022-11-04T02:13:12.342Z,38.65
2022-11-04T02:16:18.249Z,36.65
2022-11-04T02:19:53.234Z,33.78
2022-11-04T02:23:17.247Z,33.83
2022-11-04T02:26:13.241Z,35.22
2022-11-04T02:29:14.501Z,41.80
2022-11-04T02:32:23.232Z,34.30
2022-11-04T02:35:18.251Z,33.00
2022-11-04T02:38:18.256Z,34.20
2022-11-04T02:41:53.264Z,38.80
2022-11-04T02:44:54.248Z,33.30
2022-11-04T02:47:53.274Z,35.67
2022-11-04T02:50:55.245Z,39.72
2022-11-04T02:53:44.265Z,35.97
2022-11-04T02:56:41.250Z,35.38
2022-11-04T02:59:37.241Z,30.65
2022-11-04T03:02:15.514Z,31.63
2022-11-04T03:05:05.269Z,33.58
2022-11-04T03:07:42.399Z,29.50
2022-11-04T03:10:36.271Z,29.08
2022-11-04T03:13:26.304Z,29.63
2022-11-04T03:16:27.257Z,32.20
2022-11-04T03:19:26.265Z,30.23
2022-11-04T03:22:17.379Z,27.02
2022-11-04T03:25:04.285Z,29.70
2022-11-04T03:27:52.337Z,29.92
2022-11-04T03:30:53.269Z,28.38
2022-11-04T03:33:42.275Z,28.42
2022-11-04T03:36:37.263Z,31.08
2022-11-04T03:39:24.291Z,31.00
2022-11-04T03:42:02.348Z,30.95
2022-11-04T03:44:50.264Z,29.10
2022-11-04T03:47:25.353Z,34.25
2022-11-04T03:50:19.266Z,40.40
2022-11-04T03:52:59.286Z,35.05
2022-11-04T03:56:29.277Z,37.05
2022-11-04T03:59:46.281Z,36.40
2022-11-04T04:02:45.292Z,40.55
2022-11-04T04:05:36.296Z,34.47
2022-11-04T04:08:37.352Z,34.00
2022-11-04T04:11:46.300Z,33.08
2022-11-04T04:14:49.295Z,32.97
2022-11-04T04:18:03.281Z,32.35
2022-11-04T04:20:47.308Z,28.17
2022-11-04T04:23:56.273Z,28.20
2022-11-04T04:26:56.290Z,30.45
2022-11-04T04:29:51.283Z,29.35
2022-11-04T04:32:44.307Z,29.52
2022-11-04T04:35:37.399Z,30.83
2022-11-04T04:38:47.314Z,32.03
2022-11-04T04:41:49.296Z,28.15
2022-11-04T04:45:01.301Z,30.95
2022-11-04T04:47:58.311Z,28.13
2022-11-04T04:50:56.311Z,28.70
2022-11-04T04:53:43.314Z,29.00
2022-11-04T04:56:16.555Z,28.38
2022-11-04T04:59:03.315Z,26.35
2022-11-04T05:01:36.509Z,31.77
2022-11-04T05:04:23.315Z,30.02
2022-11-04T05:06:56.376Z,24.77
2022-11-04T05:09:43.311Z,25.85
2022-11-04T05:12:16.385Z,30.35
2022-11-04T05:15:03.310Z,27.98
2022-11-04T05:17:36.392Z,28.40
2022-11-04T05:20:23.317Z,28.08
2022-11-04T05:22:56.366Z,33.35
2022-11-04T05:25:43.319Z,25.88
2022-11-04T05:28:23.317Z,27.95
2022-11-04T05:31:18.327Z,26.20
2022-11-04T05:34:12.307Z,28.42
2022-11-04T05:36:59.326Z,29.63
2022-11-04T05:39:32.396Z,24.80
2022-11-04T05:42:19.323Z,25.25
2022-11-04T05:44:59.322Z,32.50
2022-11-04T05:47:53.324Z,28.13
2022-11-04T05:50:47.448Z,27.98
2022-11-04T05:53:34.340Z,27.75
2022-11-04T05:56:14.347Z,26.77
2022-11-04T05:59:08.331Z,25.55
2022-11-04T06:02:02.401Z,32.60
2022-11-04T06:04:49.344Z,33.90
2022-11-04T06:07:29.322Z,31.52
2022-11-04T06:10:16.362Z,23.83
2022-11-04T06:12:56.337Z,28.58
2022-11-04T06:15:50.353Z,29.25
2022-11-04T06:18:44.326Z,27.60
2022-11-04T06:21:38.325Z,26.27
2022-11-04T06:24:18.337Z,27.38
2022-11-04T06:27:12.336Z,26.13
2022-11-04T06:30:00.340Z,28.02
2022-11-04T06:32:33.402Z,33.22
2022-11-04T06:35:20.361Z,33.65
2022-11-04T06:37:53.411Z,30.73
2022-11-04T06:40:40.335Z,37.75
2022-11-04T06:43:20.360Z,35.83
2022-11-04T06:46:08.349Z,32.72
2022-11-04T06:48:48.354Z,32.25
2022-11-04T06:51:37.352Z,32.25
2022-11-04T06:54:10.412Z,29.67
2022-11-04T06:56:57.355Z,32.03
2022-11-04T06:59:30.423Z,27.92
2022-11-04T07:02:17.470Z,26.08
2022-11-04T07:04:50.472Z,31.50
2022-11-04T07:07:37.373Z,29.00
2022-11-04T07:10:10.511Z,37.08
2022-11-04T07:13:04.358Z,40.80
2022-11-04T07:15:58.365Z,38.08
2022-11-04T07:18:52.346Z,35.88
2022-11-04T07:21:46.376Z,29.92
2022-11-04T07:24:33.366Z,29.67
2022-11-04T07:27:07.679Z,30.35
2022-11-04T07:29:54.365Z,30.33
2022-11-04T07:32:27.431Z,27.98
2022-11-04T07:35:14.330Z,30.02
2022-11-04T07:37:54.354Z,24.58
2022-11-04T07:40:48.368Z,28.90
2022-11-04T07:43:36.368Z,28.73
2022-11-04T07:46:12.462Z,32.45
2022-11-04T07:48:59.370Z,29.27
2022-11-04T07:51:40.361Z,32.35
2022-11-04T07:54:27.386Z,27.98
2022-11-04T07:57:00.452Z,27.25
2022-11-04T07:59:47.396Z,25.17
2022-11-04T08:02:25.815Z,24.70
2022-11-04T08:05:14.369Z,29.25
2022-11-04T08:07:48.463Z,24.50
2022-11-04T08:10:35.373Z,20.35
2022-11-04T08:13:08.620Z,25.35
2022-11-04T08:15:55.375Z,22.05
2022-11-04T08:18:28.447Z,23.55
2022-11-04T08:21:16.385Z,24.80
2022-11-04T08:23:53.657Z,22.75
2022-11-04T08:26:40.401Z,23.88
2022-11-04T08:29:21.384Z,22.50
2022-11-04T08:32:08.410Z,24.88
2022-11-04T08:34:48.387Z,23.98
2022-11-04T08:37:42.405Z,27.25
2022-11-04T08:40:32.396Z,23.33
2022-11-04T08:43:05.494Z,23.20
2022-11-04T08:45:53.406Z,23.35
2022-11-04T08:48:26.475Z,20.98
2022-11-04T08:51:18.392Z,20.48
2022-11-04T08:53:54.749Z,24.58
2022-11-04T08:56:43.404Z,22.35
2022-11-04T08:59:17.288Z,26.20
2022-11-04T09:02:04.461Z,23.95
2022-11-04T09:04:44.435Z,25.20
2022-11-04T09:07:38.408Z,22.63
2022-11-04T09:10:25.394Z,21.58
2022-11-04T09:12:58.487Z,26.60
2022-11-04T09:15:45.424Z,20.88
2022-11-04T09:18:25.431Z,21.48
2022-11-04T09:21:13.425Z,22.52
2022-11-04T09:23:53.404Z,24.45
2022-11-04T09:26:47.411Z,23.88
2022-11-04T09:29:34.411Z,22.27
2022-11-04T09:32:14.441Z,23.80
2022-11-04T09:35:01.401Z,26.48
2022-11-04T09:37:41.431Z,25.10
2022-11-04T09:40:38.438Z,27.63
2022-11-04T09:43:58.443Z,30.67
2022-11-04T09:46:54.424Z,30.42
2022-11-04T09:49:45.428Z,27.33
2022-11-04T09:52:34.440Z,26.85
2022-11-04T09:56:02.433Z,29.88
2022-11-04T09:58:41.523Z,30.52
2022-11-04T10:01:34.607Z,30.40
2022-11-04T10:04:37.441Z,29.00
2022-11-04T10:07:46.437Z,31.52
2022-11-04T10:10:46.447Z,27.70
2022-11-04T10:14:15.443Z,33.30
2022-11-04T10:17:29.448Z,26.60
2022-11-04T10:20:44.017Z,25.90
2022-11-04T10:23:52.470Z,25.02
2022-11-04T10:27:16.480Z,25.83
2022-11-04T10:30:10.456Z,22.70
2022-11-04T10:32:59.471Z,22.50
2022-11-04T10:36:06.455Z,22.50
2022-11-04T10:39:06.441Z,22.90
2022-11-04T10:42:00.441Z,20.13
2022-11-04T10:44:54.466Z,23.83
2022-11-04T10:47:53.429Z,23.08
2022-11-04T10:50:41.540Z,23.17
2022-11-04T10:53:39.448Z,23.65
2022-11-04T10:56:51.530Z,24.38
2022-11-04T11:00:21.458Z,26.23
2022-11-04T11:03:08.608Z,22.95
2022-11-04T11:05:48.474Z,24.98
2022-11-04T11:08:47.460Z,26.80
2022-11-04T11:11:52.473Z,22.58
2022-11-04T11:14:50.482Z,27.83
2022-11-04T11:17:46.468Z,27.60
2022-11-04T11:20:33.455Z,24.58
2022-11-04T11:23:09.987Z,25.48
2022-11-04T11:25:57.460Z,26.08
2022-11-04T11:28:38.076Z,22.90
2022-11-04T11:31:30.541Z,22.88
2022-11-04T11:34:07.581Z,25.15
2022-11-04T11:36:55.486Z,27.85
2022-11-04T11:39:44.467Z,25.08
2022-11-04T11:42:32.489Z,24.30
2022-11-04T11:45:10.817Z,24.40
2022-11-04T11:48:01.496Z,24.88
2022-11-04T11:50:36.562Z,25.58
2022-11-04T11:53:26.501Z,24.70
2022-11-04T11:56:09.579Z,26.67
2022-11-04T12:02:34.646Z,24.98
2022-11-04T12:12:19.490Z,32.13
2022-11-04T12:15:40.493Z,28.45
2022-11-04T12:18:55.488Z,31.35
2022-11-04T12:21:57.493Z,30.25
2022-11-04T12:24:53.492Z,27.38
2022-11-04T12:27:57.571Z,27.65
2022-11-04T12:31:15.498Z,29.85
2022-11-04T12:34:14.758Z,25.27
2022-11-04T12:37:25.499Z,27.13
2022-11-04T12:40:26.507Z,23.70
2022-11-04T12:43:13.506Z,23.45
2022-11-04T12:45:56.533Z,28.75
2022-11-04T12:49:00.770Z,26.20
2022-11-04T12:51:59.490Z,26.38
2022-11-04T12:55:30.524Z,25.95
2022-11-04T12:58:36.509Z,26.35
2022-11-04T13:01:39.631Z,26.60
2022-11-04T13:04:43.497Z,24.80
2022-11-04T13:07:37.552Z,24.98
2022-11-04T13:10:25.578Z,27.35
2022-11-04T13:13:21.540Z,24.38
2022-11-04T13:16:17.527Z,23.80
2022-11-04T13:18:51.860Z,26.58
2022-11-04T13:21:43.526Z,27.55
2022-11-04T13:24:35.069Z,25.50
2022-11-04T13:27:35.534Z,24.20
2022-11-04T13:30:25.761Z,27.38
2022-11-04T13:33:24.539Z,23.10
2022-11-04T13:36:31.532Z,22.52
2022-11-04T13:39:25.536Z,25.33
2022-11-04T13:42:30.592Z,21.60
2022-11-04T13:45:10.628Z,23.67
2022-11-04T13:48:00.527Z,26.33
2022-11-04T13:50:58.519Z,25.40
2022-11-04T13:53:56.578Z,24.10
2022-11-04T13:56:54.546Z,27.00
2022-11-04T13:59:48.595Z,24.95
2022-11-04T14:02:54.639Z,20.98
2022-11-04T14:05:41.587Z,23.40
2022-11-04T14:08:35.559Z,26.80
2022-11-04T14:11:22.574Z,25.13
2022-11-04T14:14:08.624Z,22.30
2022-11-04T14:16:55.530Z,22.95
2022-11-04T14:20:02.595Z,21.20
2022-11-04T14:22:49.547Z,19.30
2022-11-04T14:25:41.565Z,22.58
2022-11-04T14:28:41.556Z,23.35
2022-11-04T14:31:50.556Z,22.90
2022-11-04T14:34:41.573Z,21.63
2022-11-04T14:37:35.572Z,22.13
2022-11-04T14:40:40.561Z,22.48
2022-11-04T14:43:38.561Z,26.17
2022-11-04T14:46:19.578Z,22.52
2022-11-04T14:49:08.562Z,21.95
2022-11-04T14:51:54.568Z,24.02
2022-11-04T14:54:43.570Z,23.05
2022-11-04T14:57:41.785Z,24.20
2022-11-04T15:00:46.641Z,21.73
2022-11-04T15:04:09.472Z,23.02
2022-11-04T15:06:53.545Z,25.00
2022-11-04T15:09:46.593Z,41.03
2022-11-04T15:12:51.581Z,30.17
2022-11-04T15:15:35.598Z,25.90
2022-11-04T15:18:28.495Z,30.15
2022-11-04T15:21:04.630Z,25.58
2022-11-04T15:23:59.587Z,27.55
2022-11-04T15:26:36.246Z,25.92
2022-11-04T15:29:24.606Z,40.47
2022-11-04T15:32:05.456Z,29.38
2022-11-04T15:34:52.580Z,37.30
2022-11-04T15:37:35.584Z,32.92
2022-11-04T15:40:30.582Z,30.75
2022-11-04T15:43:17.554Z,30.75
2022-11-04T15:46:00.588Z,27.67
2022-11-04T15:48:55.610Z,34.15
2022-11-04T15:51:54.586Z,31.55
2022-11-04T15:54:42.599Z,25.90
2022-11-04T15:57:22.702Z,29.02
2022-11-04T16:00:34.583Z,35.90
2022-11-04T16:03:09.893Z,40.75
2022-11-04T16:06:13.597Z,38.22
2022-11-04T16:08:46.702Z,44.05
2022-11-04T16:11:33.611Z,52.35
2022-11-04T16:14:29.698Z,48.38
2022-11-04T16:17:17.593Z,54.58
2022-11-04T16:20:09.591Z,47.08
2022-11-04T16:23:02.612Z,35.35
2022-11-04T16:25:39.764Z,39.17
2022-11-04T16:28:27.676Z,50.80
2022-11-04T16:31:17.612Z,74.90
2022-11-04T16:34:11.668Z,73.82
2022-11-04T16:37:05.678Z,81.07
2022-11-04T16:39:59.654Z,73.68
2022-11-04T16:42:53.676Z,58.47
2022-11-04T16:45:53.570Z,59.13
2022-11-04T16:48:40.644Z,65.38
2022-11-04T16:51:23.620Z,51.63
2022-11-04T16:54:17.677Z,66.65
2022-11-04T16:57:06.626Z,71.38
2022-11-04T16:59:40.642Z,67.82
2022-11-04T17:02:38.723Z,49.40
2022-11-04T17:05:19.620Z,66.95
2022-11-04T17:08:13.691Z,51.20
2022-11-04T17:11:00.633Z,43.08
2022-11-04T17:13:36.542Z,39.10
2022-11-04T17:16:26.638Z,39.65
2022-11-04T17:18:59.711Z,36.30
2022-11-04T17:21:46.717Z,45.33
2022-11-04T17:24:27.685Z,47.38
2022-11-04T17:27:21.677Z,42.47
2022-11-04T17:30:08.634Z,43.42
2022-11-04T17:32:41.766Z,47.03
2022-11-04T17:35:28.653Z,49.30
2022-11-04T17:38:01.700Z,55.97
2022-11-04T17:41:07.678Z,46.85
2022-11-04T17:43:59.254Z,42.85
2022-11-04T17:46:49.677Z,33.70
2022-11-04T17:49:31.853Z,32.80
2022-11-04T17:52:18.747Z,26.67
2022-11-04T17:54:58.699Z,30.15
2022-11-04T17:57:45.677Z,34.38
2022-11-04T18:00:30.706Z,35.17
2022-11-04T18:03:26.647Z,29.65
2022-11-04T18:06:13.681Z,35.78
2022-11-04T18:08:46.909Z,35.47
2022-11-04T18:11:54.707Z,30.83
2022-11-04T18:14:35.675Z,31.77
2022-11-04T18:17:31.680Z,32.95
2022-11-04T18:20:21.681Z,36.75
2022-11-04T18:22:54.791Z,43.13
2022-11-04T18:25:44.550Z,36.60
2022-11-04T18:28:26.700Z,34.58
2022-11-04T18:31:24.707Z,33.83
2022-11-04T18:34:14.704Z,32.05
2022-11-04T18:36:54.708Z,27.77
2022-11-04T18:39:41.679Z,30.52
2022-11-04T18:42:14.818Z,28.83
2022-11-04T18:45:01.679Z,30.15
2022-11-04T18:47:34.825Z,28.48
2022-11-04T18:50:21.681Z,27.25
2022-11-04T18:52:55.499Z,28.35
2022-11-04T18:55:42.703Z,33.47
2022-11-04T18:58:15.773Z,38.78
2022-11-04T19:01:02.783Z,33.92
2022-11-04T19:03:35.819Z,42.80
2022-11-04T19:06:28.707Z,37.05
2022-11-04T19:09:13.408Z,42.33
2022-11-04T19:12:23.868Z,41.35
2022-11-04T19:15:03.685Z,35.88
2022-11-04T19:17:57.693Z,44.42
2022-11-04T19:20:44.720Z,35.33
2022-11-04T19:23:25.702Z,48.25
2022-11-04T19:26:17.687Z,39.80
2022-11-04T19:28:52.998Z,37.50
2022-11-04T19:31:43.469Z,36.80
2022-11-04T19:34:23.694Z,35.20
2022-11-04T19:37:10.766Z,65.07
2022-11-04T19:39:44.801Z,56.17
2022-11-04T19:42:49.703Z,52.10
2022-11-04T19:45:33.415Z,48.92
2022-11-04T19:48:26.709Z,51.60
2022-11-04T19:51:31.597Z,53.33
2022-11-04T19:54:26.710Z,50.92
2022-11-04T19:57:16.981Z,48.42
2022-11-04T19:59:49.944Z,46.08
2022-11-04T20:02:37.832Z,51.92
2022-11-04T20:05:11.861Z,48.63
2022-11-04T20:08:06.533Z,54.20
2022-11-04T20:10:42.880Z,47.13
2022-11-04T20:13:47.710Z,55.25
2022-11-04T20:16:31.873Z,53.15
2022-11-04T20:19:22.685Z,58.97
2022-11-04T20:21:56.831Z,63.55
2022-11-04T20:24:43.711Z,61.50
2022-11-04T20:27:23.710Z,69.85
2022-11-04T20:30:10.751Z,74.90
2022-11-04T20:32:50.764Z,58.28
2022-11-04T20:35:44.753Z,65.07
2022-11-04T20:38:33.683Z,64.88
2022-11-04T20:41:18.541Z,73.90
2022-11-04T20:44:05.786Z,64.00
2022-11-04T20:46:39.880Z,65.90
2022-11-04T20:49:26.761Z,72.15
2022-11-04T20:52:06.745Z,71.60
2022-11-04T20:55:00.779Z,76.00
2022-11-04T20:57:47.778Z,67.05
2022-11-04T21:00:21.289Z,60.35
2022-11-04T21:03:07.780Z,52.45
2022-11-04T21:05:41.628Z,49.72
2022-11-04T21:08:28.796Z,55.75
2022-11-04T21:11:02.831Z,57.95
2022-11-04T21:13:51.541Z,52.13
2022-11-04T21:16:24.838Z,60.78
2022-11-04T21:19:11.778Z,53.88
2022-11-04T21:21:47.531Z,50.75
2022-11-04T21:24:39.358Z,44.25
2022-11-04T21:27:12.937Z,48.80
2022-11-04T21:29:59.775Z,57.63
2022-11-04T21:32:32.827Z,52.13
2022-11-04T21:35:19.799Z,63.72
2022-11-04T21:37:52.845Z,59.28
2022-11-04T21:40:40.790Z,54.33
2022-11-04T21:43:20.796Z,53.22
2022-11-04T21:46:14.746Z,51.88
2022-11-04T21:48:55.802Z,51.20
2022-11-04T21:51:42.804Z,48.08
2022-11-04T21:54:25.786Z,46.90
2022-11-04T21:57:12.840Z,42.28
2022-11-04T21:59:53.779Z,43.70
2022-11-04T22:02:48.904Z,42.88
2022-11-04T22:05:31.544Z,49.60
2022-11-04T22:08:25.778Z,50.90
2022-11-04T22:11:05.777Z,46.28
2022-11-04T22:13:53.779Z,45.22
2022-11-04T22:16:35.781Z,44.80
2022-11-04T22:19:31.838Z,44.25
2022-11-04T22:22:27.782Z,49.88
2022-11-04T22:25:14.796Z,46.30
2022-11-04T22:27:47.865Z,49.92
2022-11-04T22:30:35.783Z,45.72
2022-11-04T22:33:09.087Z,51.78
2022-11-04T22:35:57.796Z,44.72
2022-11-04T22:38:30.869Z,47.97
2022-11-04T22:41:21.799Z,48.72
2022-11-04T22:44:03.781Z,48.83
2022-11-04T22:46:59.315Z,49.35
2022-11-04T22:49:55.785Z,48.05
2022-11-04T22:52:42.806Z,46.83
2022-11-04T22:55:23.825Z,42.85
2022-11-04T22:58:17.823Z,48.03
2022-11-04T23:01:14.999Z,46.75
2022-11-04T23:04:11.939Z,45.42
2022-11-04T23:06:58.807Z,49.00
2022-11-04T23:09:33.048Z,41.20
2022-11-04T23:12:38.817Z,44.35
2022-11-04T23:15:30.356Z,46.58
2022-11-04T23:18:36.812Z,50.53
2022-11-04T23:21:28.108Z,47.45
2022-11-04T23:24:33.820Z,44.97
2022-11-04T23:27:17.971Z,46.15
2022-11-04T23:30:28.811Z,46.75
2022-11-04T23:33:17.825Z,43.63
2022-11-04T23:36:14.257Z,48.72
2022-11-04T23:39:00.825Z,47.35
2022-11-04T23:41:52.337Z,47.53
2022-11-04T23:44:56.816Z,42.67
2022-11-04T23:47:48.411Z,43.15
2022-11-04T23:50:55.852Z,39.65
2022-11-04T23:53:47.496Z,44.30
2022-11-04T23:56:52.815Z,38.95
2022-11-04T23:59:50.828Z,40.00
